Terminal Aerodrome Forecast
Issued by NWS

Home | Current Version | Previous Version | Text Only | Print | Product List | Glossary On
Versions: 1 2 3 4 5 6 7 8 9 10 11 12 13 14 15 16 17
000
FTUS43 KMPX 031136
TAFAXN
TAF
KAXN 031136Z 0312/0412 21010KT 1/2SM SN FZFG VV005
     FM031400 30014G24KT 3/4SM -SN BR OVC009
     FM031700 33023G32KT 1SM BLSN FEW020 BKN090
     FM040100 30016G25KT P6SM SKC
     FM040600 30012KT P6SM SKC=

USA.gov is the U.S. government's official web portal to all federal, state and local government web resources and services.